Terminal Aerodrome Forecast
Issued by NWS Northern Indiana

Home | Current Version | Previous Version | Text Only | Print | Product List | Glossary On
Versions: 1 2 3 4 5 6 7 8 9 10 11 12 13 14 15 16 17 18 19 20 21 22 23 24
000
FTUS43 KIWX 191720
TAFFWA
TAF
KFWA 191720Z 1918/2018 24007KT P6SM BKN020
      TEMPO 1918/1922 P6SM -SHRA
     FM192300 29007KT P6SM BKN060
     FM200600 32005KT P6SM BKN100
     FM201200 05005KT P6SM BKN050=

USA.gov is the U.S. government's official web portal to all federal, state and local government web resources and services.